Time;durP1;ratioP1;P1;durP2;ratioP2;P2;SDS_P1;SDS_P2;PMS_P1;PMS_P2;Temp;Humidity;BMP_temperature;BMP_pressure;BME280_temperature;BME280_humidity;BME280_pressure;Samples;Min_cycle;Max_cycle;Signal;HPM_P1;HPM_P2
2023/08/07 00:02:06;;;;;;;;;;;24.60;56.90;;;;;;5045472;28;43797;-91
2023/08/07 00:04:32;;;;;;;;;;;24.50;56.90;;;;;;5043720;28;43049;-83
2023/08/07 00:06:57;;;;;;;;;;;24.40;56.90;;;;;;5044653;28;42900;-81
2023/08/07 00:09:23;;;;;;;;;;;24.40;56.90;;;;;;5045051;28;42951;-91
2023/08/07 00:11:48;;;;;;;;;;;24.60;56.70;;;;;;5041036;28;42992;-81
2023/08/07 00:14:14;;;;;;;;;;;24.50;56.90;;;;;;5024615;28;42870;-84
2023/08/07 00:16:41;;;;;;;;;;;24.50;56.90;;;;;;5024194;28;42928;-81
2023/08/07 00:19:06;;;;;;;;;;;24.40;56.40;;;;;;5023458;28;42972;-81
2023/08/07 00:21:32;;;;;;;;;;;24.60;56.50;;;;;;5024069;28;43538;-81
2023/08/07 00:23:57;;;;;;;;;;;24.40;56.20;;;;;;5024849;28;42936;-81
2023/08/07 00:26:23;;;;;;;;;;;24.40;56.00;;;;;;5024686;28;42941;-87
2023/08/07 00:28:48;;;;;;;;;;;24.40;56.20;;;;;;5025004;28;43022;-82
2023/08/07 00:31:14;;;;;;;;;;;24.70;56.50;;;;;;5042910;28;43651;-81
2023/08/07 00:33:39;;;;;;;;;;;24.50;56.30;;;;;;5044087;28;42988;-81
2023/08/07 00:36:05;;;;;;;;;;;24.40;56.70;;;;;;5043995;28;43002;-81
2023/08/07 00:38:30;;;;;;;;;;;24.60;56.20;;;;;;5044701;28;42959;-81
2023/08/07 00:40:56;;;;;;;;;;;24.30;55.80;;;;;;5043987;28;43587;-82
2023/08/07 00:43:21;;;;;;;;;;;24.40;55.90;;;;;;5044243;28;42820;-82
2023/08/07 00:45:47;;;;;;;;;;;24.40;56.30;;;;;;5042788;28;44261;-81
2023/08/07 00:48:14;;;;;;;;;;;23.30;55.60;;;;;;5024426;28;42918;-86
2023/08/07 00:50:41;;;;;;;;;;;24.40;56.20;;;;;;5023908;28;42948;-82
2023/08/07 00:53:07;;;;;;;;;;;24.30;55.90;;;;;;5022916;28;43015;-82
2023/08/07 00:55:32;;;;;;;;;;;24.20;56.00;;;;;;5024000;28;43677;-81
2023/08/07 00:57:58;;;;;;;;;;;24.10;55.70;;;;;;5025012;28;42929;-81
2023/08/07 01:00:24;;;;;;;;;;;24.30;56.50;;;;;;5043553;28;43330;-83
2023/08/07 01:02:51;;;;;;;;;;;24.30;55.70;;;;;;5043167;28;43044;-84
2023/08/07 01:05:17;;;;;;;;;;;24.30;55.90;;;;;;5043973;28;43538;-81
2023/08/07 01:07:43;;;;;;;;;;;24.30;57.80;;;;;;5043853;28;43101;-81
2023/08/07 01:10:08;;;;;;;;;;;24.30;56.60;;;;;;5043965;28;42999;-81
2023/08/07 01:12:37;;;;;;;;;;;24.40;56.00;;;;;;5044038;28;42923;-82
2023/08/07 01:15:14;;;;;;;;;;;24.30;56.40;;;;;;5025437;28;43086;-82
2023/08/07 01:17:40;;;;;;;;;;;24.20;55.80;;;;;;5023747;28;43018;-81
2023/08/07 01:20:06;;;;;;;;;;;24.40;55.80;;;;;;5024727;28;43673;-81
2023/08/07 01:22:32;;;;;;;;;;;24.20;55.20;;;;;;5024315;28;42924;-81
2023/08/07 01:24:57;;;;;;;;;;;24.20;55.30;;;;;;5023834;28;43520;-86
2023/08/07 01:27:29;;;;;;;;;;;24.30;54.50;;;;;;5023983;28;43031;-81
2023/08/07 01:29:55;;;;;;;;;;;24.20;53.30;;;;;;5038940;28;43014;-81
2023/08/07 01:32:38;;;;;;;;;;;24.30;55.20;;;;;;5043486;28;42848;-81
2023/08/07 01:35:05;;;;;;;;;;;24.30;52.10;;;;;;5043652;28;42958;-82
2023/08/07 01:37:32;;;;;;;;;;;24.20;53.80;;;;;;5041777;28;43237;-82
2023/08/07 01:39:58;;;;;;;;;;;24.30;53.90;;;;;;5045476;28;43047;-81
2023/08/07 01:42:24;;;;;;;;;;;24.30;54.10;;;;;;5046920;28;43182;-81
2023/08/07 01:44:49;;;;;;;;;;;24.00;54.30;;;;;;5045921;28;43033;-82
2023/08/07 01:47:15;;;;;;;;;;;24.10;53.90;;;;;;5028886;28;43035;-82
2023/08/07 01:49:40;;;;;;;;;;;24.20;53.80;;;;;;5027089;28;43959;-81
2023/08/07 01:52:07;;;;;;;;;;;24.20;54.50;;;;;;5026010;28;43010;-81
2023/08/07 01:54:32;;;;;;;;;;;24.00;52.90;;;;;;5024424;28;43561;-81
2023/08/07 01:56:58;;;;;;;;;;;24.20;53.40;;;;;;5026497;28;42997;-81
2023/08/07 01:59:23;;;;;;;;;;;24.00;53.40;;;;;;5027658;28;42940;-81
2023/08/07 02:01:49;;;;;;;;;;;24.10;53.10;;;;;;5025575;28;43015;-81
2023/08/07 02:04:14;;;;;;;;;;;24.10;53.90;;;;;;5026916;28;43972;-81
2023/08/07 02:06:40;;;;;;;;;;;24.00;52.70;;;;;;5026645;28;43019;-81
2023/08/07 02:09:05;;;;;;;;;;;24.10;52.60;;;;;;5026736;28;43628;-81
2023/08/07 02:11:31;;;;;;;;;;;24.00;51.90;;;;;;5026046;28;42868;-82
2023/08/07 02:13:56;;;;;;;;;;;24.00;51.80;;;;;;5030346;28;44393;-87
2023/08/07 02:16:22;;;;;;;;;;;24.10;52.00;;;;;;5046625;28;42970;-85
2023/08/07 02:18:47;;;;;;;;;;;24.10;51.70;;;;;;5046379;28;43538;-82
2023/08/07 02:21:13;;;;;;;;;;;24.10;51.80;;;;;;5046552;28;43042;-82
2023/08/07 02:23:38;;;;;;;;;;;24.00;52.10;;;;;;5046771;28;43549;-81
2023/08/07 02:26:04;;;;;;;;;;;23.70;51.70;;;;;;5045716;28;43034;-81
2023/08/07 02:28:29;;;;;;;;;;;23.90;52.20;;;;;;5046441;28;43019;-81
2023/08/07 02:30:55;;;;;;;;;;;23.90;52.50;;;;;;5040228;28;43094;-81
2023/08/07 02:33:20;;;;;;;;;;;24.20;51.60;;;;;;5026166;28;43687;-81
2023/08/07 02:35:46;;;;;;;;;;;24.20;51.50;;;;;;5025701;28;42864;-81
2023/08/07 02:38:11;;;;;;;;;;;24.00;50.50;;;;;;5026450;28;43478;-81
2023/08/07 02:40:37;;;;;;;;;;;23.90;50.40;;;;;;5025854;28;42917;-86
2023/08/07 02:43:02;;;;;;;;;;;23.90;49.90;;;;;;5025838;28;43390;-81
2023/08/07 02:45:28;;;;;;;;;;;23.70;49.50;;;;;;5026342;28;42867;-89
2023/08/07 02:47:54;;;;;;;;;;;23.90;49.40;;;;;;5025825;28;42951;-81
2023/08/07 02:50:20;;;;;;;;;;;23.70;48.80;;;;;;5026678;28;42971;-81
2023/08/07 02:52:45;;;;;;;;;;;23.90;49.00;;;;;;5024667;28;43822;-81
2023/08/07 02:55:11;;;;;;;;;;;23.80;48.80;;;;;;5026108;28;42936;-81
2023/08/07 02:57:36;;;;;;;;;;;24.30;48.80;;;;;;5023860;28;44992;-81
2023/08/07 03:00:02;;;;;;;;;;;23.90;48.30;;;;;;5026016;28;43078;-81
2023/08/07 03:02:28;;;;;;;;;;;23.70;47.90;;;;;;5025576;28;43502;-91
2023/08/07 03:04:54;;;;;;;;;;;23.90;47.70;;;;;;5025579;28;42879;-81
2023/08/07 03:07:19;;;;;;;;;;;23.80;47.30;;;;;;5044003;28;43479;-83
2023/08/07 03:09:46;;;;;;;;;;;23.80;47.00;;;;;;5044913;28;43258;-81
2023/08/07 03:12:11;;;;;;;;;;;23.70;46.30;;;;;;5045436;28;43334;-81
2023/08/07 03:14:37;;;;;;;;;;;23.80;46.30;;;;;;5045980;28;42985;-81
2023/08/07 03:17:02;;;;;;;;;;;23.70;46.30;;;;;;5045054;28;42974;-84
2023/08/07 03:19:28;;;;;;;;;;;23.80;45.90;;;;;;5044603;28;42988;-81
2023/08/07 03:21:53;;;;;;;;;;;23.50;45.20;;;;;;5046086;28;43830;-81
2023/08/07 03:24:19;;;;;;;;;;;23.80;45.10;;;;;;5026954;28;43035;-81
2023/08/07 03:26:47;;;;;;;;;;;23.70;45.20;;;;;;5024768;28;43525;-90
2023/08/07 03:29:12;;;;;;;;;;;23.70;45.10;;;;;;5025700;28;42878;-81
2023/08/07 03:31:38;;;;;;;;;;;23.80;44.60;;;;;;5024586;28;42966;-82
2023/08/07 03:34:03;;;;;;;;;;;23.70;45.20;;;;;;5025337;28;43046;-81
2023/08/07 03:36:29;;;;;;;;;;;23.70;46.60;;;;;;5023841;28;43104;-82
2023/08/07 03:38:54;;;;;;;;;;;23.70;45.10;;;;;;5026202;28;43103;-81
2023/08/07 03:41:20;;;;;;;;;;;23.40;45.10;;;;;;5045385;28;43371;-80
2023/08/07 03:43:45;;;;;;;;;;;23.80;45.60;;;;;;5045475;28;42894;-81
2023/08/07 03:46:11;;;;;;;;;;;23.70;45.80;;;;;;5044399;28;43313;-81
2023/08/07 03:48:37;;;;;;;;;;;23.80;46.50;;;;;;5045401;28;42913;-81
2023/08/07 03:51:08;;;;;;;;;;;23.80;46.50;;;;;;5045213;28;42963;-82
2023/08/07 03:53:33;;;;;;;;;;;23.60;45.40;;;;;;5042955;28;42974;-84
2023/08/07 03:55:59;;;;;;;;;;;23.70;47.70;;;;;;5044286;28;42930;-81
2023/08/07 03:58:24;;;;;;;;;;;23.70;46.30;;;;;;5044062;28;43083;-80
2023/08/07 04:00:50;;;;;;;;;;;23.60;47.00;;;;;;5042179;28;44491;-85
2023/08/07 04:03:16;;;;;;;;;;;23.50;47.10;;;;;;5043906;28;42883;-84
2023/08/07 04:05:41;;;;;;;;;;;23.60;47.60;;;;;;5044699;28;43180;-81
2023/08/07 04:08:07;;;;;;;;;;;23.60;47.70;;;;;;5045115;28;42919;-81
2023/08/07 04:10:32;;;;;;;;;;;23.70;48.20;;;;;;5042739;28;44025;-81
2023/08/07 04:12:58;;;;;;;;;;;23.70;48.20;;;;;;5045045;28;42944;-82
2023/08/07 04:15:23;;;;;;;;;;;23.60;48.50;;;;;;5027464;28;43781;-81
2023/08/07 04:17:49;;;;;;;;;;;23.50;48.80;;;;;;5023930;28;43072;-80
2023/08/07 04:20:15;;;;;;;;;;;23.80;48.40;;;;;;5024072;28;42880;-82
2023/08/07 04:22:40;;;;;;;;;;;23.60;47.70;;;;;;5024446;28;43224;-88
2023/08/07 04:25:06;;;;;;;;;;;23.70;48.10;;;;;;5023888;28;42944;-81
2023/08/07 04:27:31;;;;;;;;;;;23.70;48.10;;;;;;5025020;28;42928;-81
2023/08/07 04:29:57;;;;;;;;;;;23.50;48.80;;;;;;5023743;28;43059;-82
2023/08/07 04:32:23;;;;;;;;;;;23.50;49.40;;;;;;5042982;28;43083;-81
2023/08/07 04:34:48;;;;;;;;;;;23.50;49.20;;;;;;5044468;28;44082;-81
2023/08/07 04:37:14;;;;;;;;;;;23.40;50.00;;;;;;5043993;28;43585;-81
2023/08/07 04:39:39;;;;;;;;;;;23.50;50.50;;;;;;5044125;28;43478;-80
2023/08/07 04:42:05;;;;;;;;;;;23.60;50.20;;;;;;5042628;28;42877;-81
2023/08/07 04:44:31;;;;;;;;;;;23.60;50.20;;;;;;5042975;28;44841;-81
2023/08/07 04:46:56;;;;;;;;;;;23.40;50.20;;;;;;5044038;28;42947;-81
2023/08/07 04:49:22;;;;;;;;;;;23.70;50.50;;;;;;5040181;28;43153;-81
2023/08/07 04:51:47;;;;;;;;;;;23.60;54.10;;;;;;5023023;28;43032;-81
2023/08/07 04:54:13;;;;;;;;;;;23.60;51.90;;;;;;5023160;28;42971;-86
2023/08/07 04:56:38;;;;;;;;;;;23.50;51.50;;;;;;5023041;28;43496;-81
2023/08/07 04:59:04;;;;;;;;;;;23.70;52.80;;;;;;5024153;28;42921;-81
2023/08/07 05:01:29;;;;;;;;;;;23.50;51.50;;;;;;5024183;28;42952;-81
2023/08/07 05:03:55;;;;;;;;;;;23.40;51.20;;;;;;5035629;28;45865;-81
2023/08/07 05:06:20;;;;;;;;;;;23.30;48.80;;;;;;5044691;28;42924;-87
2023/08/07 05:08:46;;;;;;;;;;;23.50;49.10;;;;;;5043991;28;43027;-84
2023/08/07 05:11:11;;;;;;;;;;;23.50;48.70;;;;;;5043681;28;42919;-81
2023/08/07 05:13:37;;;;;;;;;;;23.40;49.70;;;;;;5044179;28;43402;-91
2023/08/07 05:16:02;;;;;;;;;;;23.60;49.70;;;;;;5047393;28;43045;-81
2023/08/07 05:18:28;;;;;;;;;;;23.50;49.70;;;;;;5047261;28;42966;-81
2023/08/07 05:20:53;;;;;;;;;;;23.50;52.30;;;;;;5045423;28;43065;-89
2023/08/07 05:23:19;;;;;;;;;;;23.40;50.90;;;;;;5047811;28;42930;-81
2023/08/07 05:25:45;;;;;;;;;;;23.60;49.80;;;;;;5047711;28;43102;-81
2023/08/07 05:28:11;;;;;;;;;;;23.50;49.40;;;;;;5045680;28;44234;-81
2023/08/07 05:30:36;;;;;;;;;;;23.60;49.00;;;;;;5047131;28;43052;-81
2023/08/07 05:33:02;;;;;;;;;;;23.60;49.60;;;;;;5047166;28;42946;-82
2023/08/07 05:35:27;;;;;;;;;;;23.20;49.60;;;;;;5045934;28;42854;-81
2023/08/07 05:37:53;;;;;;;;;;;23.50;49.50;;;;;;5037021;28;44454;-80
2023/08/07 05:40:19;;;;;;;;;;;23.60;49.30;;;;;;5036310;28;43238;-83
2023/08/07 05:42:44;;;;;;;;;;;23.40;49.30;;;;;;5040718;28;43476;-79
2023/08/07 05:45:10;;;;;;;;;;;23.40;49.30;;;;;;5035384;28;42975;-79
2023/08/07 05:47:36;;;;;;;;;;;23.50;49.00;;;;;;5026952;28;43037;-80
2023/08/07 05:50:02;;;;;;;;;;;23.50;49.00;;;;;;5043605;28;42983;-82
2023/08/07 05:52:27;;;;;;;;;;;23.80;50.60;;;;;;5042667;28;43869;-84
2023/08/07 05:54:53;;;;;;;;;;;23.70;48.20;;;;;;5032131;28;43151;-82
2023/08/07 05:57:18;;;;;;;;;;;23.70;47.60;;;;;;5041801;28;43043;-82
2023/08/07 05:59:44;;;;;;;;;;;23.70;47.70;;;;;;5040389;28;43108;-79
2023/08/07 06:02:13;;;;;;;;;;;23.80;47.50;;;;;;5041500;28;43744;-79
2023/08/07 06:04:38;;;;;;;;;;;23.80;46.80;;;;;;5037184;28;43128;-80
2023/08/07 06:07:04;;;;;;;;;;;24.10;47.90;;;;;;5039271;28;44218;-80
2023/08/07 06:09:30;;;;;;;;;;;23.80;47.50;;;;;;5032638;28;43014;-80
2023/08/07 06:11:56;;;;;;;;;;;23.90;48.00;;;;;;5032224;28;43142;-80
2023/08/07 06:14:21;;;;;;;;;;;23.90;48.20;;;;;;5029688;28;43040;-79
2023/08/07 06:16:47;;;;;;;;;;;23.90;48.50;;;;;;5026828;28;43730;-79
2023/08/07 06:19:12;;;;;;;;;;;23.80;48.80;;;;;;5040060;28;42896;-79
2023/08/07 06:21:38;;;;;;;;;;;23.90;48.80;;;;;;5032814;28;42889;-80
2023/08/07 06:24:03;;;;;;;;;;;23.90;49.00;;;;;;5035855;28;42960;-82
2023/08/07 06:26:29;;;;;;;;;;;23.60;48.80;;;;;;5028787;28;44064;-79
2023/08/07 06:28:54;;;;;;;;;;;23.80;48.80;;;;;;5037749;28;42971;-81
2023/08/07 06:31:20;;;;;;;;;;;23.90;48.90;;;;;;5038059;28;43173;-95
2023/08/07 06:33:45;;;;;;;;;;;24.00;49.00;;;;;;5036071;28;42995;-80
2023/08/07 06:36:11;;;;;;;;;;;23.90;48.70;;;;;;5035344;28;42845;-79
2023/08/07 06:38:36;;;;;;;;;;;24.10;48.30;;;;;;5042561;28;42986;-79
2023/08/07 06:41:02;;;;;;;;;;;24.00;48.50;;;;;;5036730;28;43994;-83
2023/08/07 06:43:28;;;;;;;;;;;23.90;48.10;;;;;;5050837;28;43555;-83
2023/08/07 06:45:54;;;;;;;;;;;23.90;47.80;;;;;;5042131;28;42941;-82
2023/08/07 06:48:20;;;;;;;;;;;24.00;47.70;;;;;;5047256;28;44241;-82
2023/08/07 06:50:48;;;;;;;;;;;23.90;47.20;;;;;;5048417;28;43609;-84
2023/08/07 06:53:14;;;;;;;;;;;23.70;45.80;;;;;;5041427;28;42955;-82
2023/08/07 06:55:43;;;;;;;;;;;24.10;48.40;;;;;;5037421;28;43367;-86
2023/08/07 06:58:08;;;;;;;;;;;24.00;46.50;;;;;;5039119;28;43081;-81
2023/08/07 07:00:35;;;;;;;;;;;23.40;48.20;;;;;;5041386;28;42922;-81
2023/08/07 07:03:01;;;;;;;;;;;23.90;48.10;;;;;;5040256;28;42982;-79
2023/08/07 07:05:26;;;;;;;;;;;23.90;48.10;;;;;;5038510;28;43075;-83
2023/08/07 07:07:52;;;;;;;;;;;24.10;48.50;;;;;;5033046;28;43653;-80
2023/08/07 07:10:17;;;;;;;;;;;24.00;48.70;;;;;;5039232;28;44477;-81
2023/08/07 07:12:43;;;;;;;;;;;24.10;48.50;;;;;;5041268;28;43234;-81
2023/08/07 07:15:09;;;;;;;;;;;24.30;48.10;;;;;;5039214;28;43605;-89
2023/08/07 07:17:34;;;;;;;;;;;24.00;47.20;;;;;;5045840;28;43146;-83
2023/08/07 07:20:00;;;;;;;;;;;24.20;46.90;;;;;;5041690;28;43006;-83
2023/08/07 07:22:26;;;;;;;;;;;24.20;47.40;;;;;;5045799;28;42994;-81
2023/08/07 07:24:51;;;;;;;;;;;24.10;47.30;;;;;;5041475;28;42955;-81
2023/08/07 07:27:17;;;;;;;;;;;24.10;47.10;;;;;;5040067;28;43091;-79
2023/08/07 07:29:42;;;;;;;;;;;24.30;46.40;;;;;;5031085;28;43399;-80
2023/08/07 07:32:08;;;;;;;;;;;24.10;45.20;;;;;;5041908;28;42921;-81
2023/08/07 07:34:33;;;;;;;;;;;24.20;45.00;;;;;;5045281;28;42913;-80
2023/08/07 07:36:59;;;;;;;;;;;24.10;45.30;;;;;;5039369;28;43501;-90
2023/08/07 07:39:24;;;;;;;;;;;24.00;44.80;;;;;;5040521;28;43424;-79
2023/08/07 07:41:50;;;;;;;;;;;24.20;44.20;;;;;;5041341;28;43106;-81
2023/08/07 07:44:15;;;;;;;;;;;24.30;44.90;;;;;;5037209;28;43590;-79
2023/08/07 07:46:41;;;;;;;;;;;24.20;45.20;;;;;;5041190;28;43009;-80
2023/08/07 07:49:06;;;;;;;;;;;24.20;45.50;;;;;;5046347;28;43828;-90
2023/08/07 07:51:32;;;;;;;;;;;24.30;46.30;;;;;;5045174;28;42813;-85
2023/08/07 07:53:58;;;;;;;;;;;24.30;46.00;;;;;;5049258;28;43316;-87
2023/08/07 07:56:24;;;;;;;;;;;24.40;45.20;;;;;;5045895;28;42901;-80
2023/08/07 07:58:49;;;;;;;;;;;24.40;45.80;;;;;;5065125;28;42997;-80
2023/08/07 08:01:15;;;;;;;;;;;24.30;45.70;;;;;;5036629;28;43061;-81
2023/08/07 08:03:40;;;;;;;;;;;24.30;45.40;;;;;;5042797;28;43436;-80
2023/08/07 08:06:06;;;;;;;;;;;24.40;45.80;;;;;;5043664;28;42946;-81
2023/08/07 08:08:31;;;;;;;;;;;24.30;45.40;;;;;;5047361;28;43450;-87
2023/08/07 08:10:57;;;;;;;;;;;24.40;45.10;;;;;;5031676;28;42895;-79
2023/08/07 08:13:25;;;;;;;;;;;24.40;44.40;;;;;;5035148;28;45222;-80
2023/08/07 08:15:50;;;;;;;;;;;24.30;44.80;;;;;;5035837;28;43013;-90
2023/08/07 08:18:16;;;;;;;;;;;24.40;44.50;;;;;;5038430;28;43394;-84
2023/08/07 08:20:42;;;;;;;;;;;24.30;43.90;;;;;;5041154;28;43038;-85
2023/08/07 08:23:08;;;;;;;;;;;24.50;44.10;;;;;;5046081;28;44427;-91
2023/08/07 08:25:33;;;;;;;;;;;24.40;43.80;;;;;;5023062;28;43011;-85
2023/08/07 08:27:59;;;;;;;;;;;24.50;44.20;;;;;;5038723;28;45459;-90
2023/08/07 08:30:25;;;;;;;;;;;24.50;44.20;;;;;;5033174;28;42988;-88
2023/08/07 08:32:51;;;;;;;;;;;24.50;44.20;;;;;;5034950;28;43044;-89
2023/08/07 08:35:25;;;;;;;;;;;24.50;44.40;;;;;;5033499;28;42883;-93
2023/08/07 08:37:51;;;;;;;;;;;26.10;44.40;;;;;;5041913;28;44393;-93
2023/08/07 08:40:19;;;;;;;;;;;24.50;44.30;;;;;;5036434;28;43041;-87
2023/08/07 08:42:45;;;;;;;;;;;26.00;43.40;;;;;;5025976;28;43043;-85
2023/08/07 08:45:16;;;;;;;;;;;24.60;44.20;;;;;;5042171;28;43203;-90
2023/08/07 08:47:43;;;;;;;;;;;24.50;44.00;;;;;;5048793;28;42815;-85
2023/08/07 08:50:14;;;;;;;;;;;24.40;43.80;;;;;;5059420;28;42970;-84
2023/08/07 08:52:46;;;;;;;;;;;25.50;43.80;;;;;;5054291;28;44508;-84
2023/08/07 08:55:12;;;;;;;;;;;24.50;43.30;;;;;;5049324;28;42959;-84
2023/08/07 08:57:39;;;;;;;;;;;24.50;44.80;;;;;;5052477;28;42965;-86
2023/08/07 09:00:25;;;;;;;;;;;24.50;43.60;;;;;;5063165;28;43121;-86
2023/08/07 09:02:53;;;;;;;;;;;24.40;42.90;;;;;;5041776;28;42848;-84
2023/08/07 09:05:19;;;;;;;;;;;24.40;42.10;;;;;;5056528;28;42892;-89
2023/08/07 09:07:47;;;;;;;;;;;24.50;42.90;;;;;;5057381;28;43529;-84
2023/08/07 09:10:13;;;;;;;;;;;24.60;42.60;;;;;;5050033;28;42983;-83
2023/08/07 09:12:45;;;;;;;;;;;24.70;43.80;;;;;;5037595;28;43494;-84
2023/08/07 09:15:12;;;;;;;;;;;24.60;43.40;;;;;;5045297;28;43003;-86
2023/08/07 09:17:42;;;;;;;;;;;24.60;44.30;;;;;;5038336;28;44038;-83
2023/08/07 09:20:14;;;;;;;;;;;24.70;43.40;;;;;;5050724;28;42875;-94
2023/08/07 09:22:40;;;;;;;;;;;24.70;42.50;;;;;;5049479;28;43321;-95
2023/08/07 09:25:16;;;;;;;;;;;24.60;44.00;;;;;;5027992;28;43485;-90
2023/08/07 09:27:47;;;;;;;;;;;25.00;43.10;;;;;;5053796;28;43801;-88
2023/08/07 09:30:13;;;;;;;;;;;24.70;43.70;;;;;;5048429;28;42948;-92
2023/08/07 09:32:40;;;;;;;;;;;23.00;42.80;;;;;;5044827;28;42913;-85
2023/08/07 09:35:06;;;;;;;;;;;24.60;43.00;;;;;;5040606;28;42965;-87
2023/08/07 09:37:36;;;;;;;;;;;24.60;44.00;;;;;;5030337;28;42933;-86
2023/08/07 09:40:02;;;;;;;;;;;24.40;43.40;;;;;;5029580;28;43104;-90
2023/08/07 09:42:30;;;;;;;;;;;24.70;44.90;;;;;;5024805;28;43197;-84
2023/08/07 09:44:56;;;;;;;;;;;24.60;43.30;;;;;;5023705;28;43000;-87
2023/08/07 09:47:21;;;;;;;;;;;24.70;43.90;;;;;;5025847;28;44481;-92
2023/08/07 09:49:47;;;;;;;;;;;24.70;44.00;;;;;;5041654;28;43072;-86
2023/08/07 09:52:14;;;;;;;;;;;24.70;44.40;;;;;;5030343;28;42936;-85
2023/08/07 09:54:40;;;;;;;;;;;24.70;44.20;;;;;;5039408;28;43027;-87
2023/08/07 09:57:13;;;;;;;;;;;24.60;44.30;;;;;;5036610;28;43110;-86
2023/08/07 09:59:39;;;;;;;;;;;26.40;44.30;;;;;;5032352;28;42962;-86
2023/08/07 10:02:05;;;;;;;;;;;24.70;42.30;;;;;;5030801;28;44460;-84
2023/08/07 10:04:31;;;;;;;;;;;24.60;41.90;;;;;;5029811;28;42868;-87
2023/08/07 10:06:56;;;;;;;;;;;24.80;40.90;;;;;;5030673;28;44046;-84
2023/08/07 10:09:22;;;;;;;;;;;24.60;41.00;;;;;;5032240;28;42971;-87
2023/08/07 10:11:57;;;;;;;;;;;24.60;39.80;;;;;;5030048;28;42957;-86
2023/08/07 10:14:23;;;;;;;;;;;24.60;39.00;;;;;;5032346;28;42940;-85
2023/08/07 10:16:49;;;;;;;;;;;24.70;39.70;;;;;;5031406;28;43308;-85
2023/08/07 10:19:14;;;;;;;;;;;24.80;40.90;;;;;;5032203;28;42777;-86
2023/08/07 10:21:40;;;;;;;;;;;24.70;40.90;;;;;;5031630;28;43193;-85
2023/08/07 10:24:07;;;;;;;;;;;24.80;40.80;;;;;;5027249;28;42848;-85
2023/08/07 10:26:33;;;;;;;;;;;24.80;41.20;;;;;;5027016;28;42939;-86
2023/08/07 10:29:03;;;;;;;;;;;24.70;41.10;;;;;;5027592;28;42783;-86
2023/08/07 10:31:29;;;;;;;;;;;24.80;40.60;;;;;;5025328;28;43904;-86
2023/08/07 10:33:55;;;;;;;;;;;24.80;40.90;;;;;;5026699;28;42976;-86
2023/08/07 10:36:21;;;;;;;;;;;24.70;38.40;;;;;;5026865;28;43073;-86
2023/08/07 10:38:50;;;;;;;;;;;23.40;37.10;;;;;;5031540;28;42858;-86
2023/08/07 10:41:17;;;;;;;;;;;24.70;35.20;;;;;;5045441;28;44766;-87
2023/08/07 10:43:44;;;;;;;;;;;24.70;35.40;;;;;;5046983;28;43030;-86
2023/08/07 10:46:14;;;;;;;;;;;24.60;37.30;;;;;;5046787;28;43048;-91
2023/08/07 10:48:45;;;;;;;;;;;24.70;36.30;;;;;;5045486;28;42987;-86
2023/08/07 10:51:14;;;;;;;;;;;24.70;39.00;;;;;;5046569;28;43836;-86
2023/08/07 10:53:45;;;;;;;;;;;24.70;36.20;;;;;;5046569;28;42912;-90
2023/08/07 10:56:14;;;;;;;;;;;24.70;35.50;;;;;;5038236;28;43547;-92
2023/08/07 10:58:40;;;;;;;;;;;24.70;36.70;;;;;;5026667;28;43007;-85
2023/08/07 11:01:21;;;;;;;;;;;24.70;37.00;;;;;;5026342;28;43611;-85
2023/08/07 11:03:54;;;;;;;;;;;24.80;36.10;;;;;;5025971;28;42870;-87
2023/08/07 11:06:33;;;;;;;;;;;24.70;37.00;;;;;;5044709;28;44351;-86
2023/08/07 11:08:59;;;;;;;;;;;24.70;36.00;;;;;;5046582;28;43083;-86
2023/08/07 11:11:26;;;;;;;;;;;24.80;36.80;;;;;;5045788;28;42804;-86
2023/08/07 11:13:51;;;;;;;;;;;24.80;36.40;;;;;;5033682;28;42920;-86
2023/08/07 11:16:17;;;;;;;;;;;24.80;37.70;;;;;;5026181;28;42955;-86
2023/08/07 11:18:43;;;;;;;;;;;24.80;38.80;;;;;;5027631;28;42921;-86
2023/08/07 11:21:10;;;;;;;;;;;24.90;39.20;;;;;;5026181;28;43692;-87
2023/08/07 11:23:36;;;;;;;;;;;24.90;39.10;;;;;;5031440;28;42884;-87
2023/08/07 11:26:03;;;;;;;;;;;24.90;39.50;;;;;;5028785;28;42840;-90
2023/08/07 11:28:29;;;;;;;;;;;25.00;39.90;;;;;;5044064;28;43072;-86
2023/08/07 11:30:55;;;;;;;;;;;24.90;39.60;;;;;;5041086;28;43025;-86
2023/08/07 11:33:23;;;;;;;;;;;25.00;39.80;;;;;;5027272;28;42979;-86
2023/08/07 11:35:49;;;;;;;;;;;24.90;40.30;;;;;;5021654;28;42935;-87
2023/08/07 11:38:33;;;;;;;;;;;24.90;40.10;;;;;;5031646;28;43020;-83
2023/08/07 11:40:59;;;;;;;;;;;24.90;39.30;;;;;;5024417;28;44436;-82
2023/08/07 11:43:26;;;;;;;;;;;24.90;40.50;;;;;;5026496;28;42896;-84
2023/08/07 11:45:52;;;;;;;;;;;24.90;39.90;;;;;;5027732;28;42952;-83
2023/08/07 11:48:17;;;;;;;;;;;24.90;40.50;;;;;;5034553;28;43055;-83
2023/08/07 11:50:43;;;;;;;;;;;25.00;40.70;;;;;;5041391;28;42963;-84
2023/08/07 11:53:08;;;;;;;;;;;24.90;40.00;;;;;;5033659;28;42894;-88
2023/08/07 11:55:34;;;;;;;;;;;25.00;39.70;;;;;;5027171;28;44023;-83
2023/08/07 11:58:02;;;;;;;;;;;25.00;39.60;;;;;;5042816;28;43012;-83
2023/08/07 12:00:29;;;;;;;;;;;24.90;39.40;;;;;;5041013;28;43960;-82
2023/08/07 12:02:54;;;;;;;;;;;25.00;40.50;;;;;;5038131;28;43014;-82
2023/08/07 12:05:20;;;;;;;;;;;25.00;40.50;;;;;;5034559;28;43507;-84
2023/08/07 12:07:47;;;;;;;;;;;25.00;41.30;;;;;;5034540;28;43197;-85
2023/08/07 12:10:12;;;;;;;;;;;25.00;41.70;;;;;;5035196;28;43323;-82
2023/08/07 12:12:38;;;;;;;;;;;24.90;41.90;;;;;;5032124;28;42958;-83
2023/08/07 12:15:07;;;;;;;;;;;25.00;42.40;;;;;;5034226;28;43535;-82
2023/08/07 12:17:33;;;;;;;;;;;25.10;41.80;;;;;;5024474;28;42999;-83
2023/08/07 12:19:58;;;;;;;;;;;25.00;43.00;;;;;;5034465;28;43788;-82
2023/08/07 12:22:26;;;;;;;;;;;25.00;42.60;;;;;;5039756;28;43022;-82
2023/08/07 12:24:52;;;;;;;;;;;25.00;42.30;;;;;;5036552;28;43388;-85
2023/08/07 12:27:19;;;;;;;;;;;25.10;41.90;;;;;;5035577;28;59715;-82
2023/08/07 12:29:45;;;;;;;;;;;24.90;41.60;;;;;;5036526;28;43400;-81
2023/08/07 12:32:10;;;;;;;;;;;25.00;41.40;;;;;;5034251;28;42920;-89
2023/08/07 12:34:40;;;;;;;;;;;25.00;41.50;;;;;;5021686;28;43021;-87
2023/08/07 12:37:06;;;;;;;;;;;25.00;41.70;;;;;;5036686;28;42923;-87
2023/08/07 12:39:31;;;;;;;;;;;25.20;41.00;;;;;;5034237;28;42995;-87
2023/08/07 12:41:58;;;;;;;;;;;25.10;42.10;;;;;;5035341;28;42972;-87
2023/08/07 12:44:23;;;;;;;;;;;24.90;42.00;;;;;;5035037;28;43310;-86
2023/08/07 12:46:49;;;;;;;;;;;25.10;42.40;;;;;;5035038;28;43005;-87
2023/08/07 12:49:15;;;;;;;;;;;25.00;42.30;;;;;;5033284;28;43060;-87
2023/08/07 12:51:41;;;;;;;;;;;25.00;42.60;;;;;;5035549;28;43047;-86
2023/08/07 12:54:06;;;;;;;;;;;25.10;42.50;;;;;;5037234;28;43657;-86
2023/08/07 12:56:32;;;;;;;;;;;25.10;41.10;;;;;;5035281;28;42990;-87
2023/08/07 12:58:57;;;;;;;;;;;25.00;41.40;;;;;;5035366;28;43329;-88
2023/08/07 13:01:23;;;;;;;;;;;24.90;40.30;;;;;;5034593;28;43047;-86
2023/08/07 13:03:48;;;;;;;;;;;25.00;40.20;;;;;;5037750;28;43525;-87
2023/08/07 13:06:14;;;;;;;;;;;25.10;40.10;;;;;;5034574;28;42968;-86
2023/08/07 13:08:40;;;;;;;;;;;25.10;40.50;;;;;;5039415;28;42991;-86
2023/08/07 13:11:06;;;;;;;;;;;25.10;39.80;;;;;;5041707;28;42982;-86
2023/08/07 13:13:31;;;;;;;;;;;25.10;40.60;;;;;;5041545;28;43577;-87
2023/08/07 13:15:57;;;;;;;;;;;25.10;41.20;;;;;;5041231;28;43089;-86
2023/08/07 13:18:24;;;;;;;;;;;25.20;40.40;;;;;;5040308;28;43618;-86
2023/08/07 13:20:49;;;;;;;;;;;24.80;39.80;;;;;;5035975;28;43019;-87
2023/08/07 13:23:15;;;;;;;;;;;25.10;40.70;;;;;;5031885;28;45430;-87
2023/08/07 13:25:41;;;;;;;;;;;25.10;40.20;;;;;;5038662;28;42947;-88
2023/08/07 13:28:06;;;;;;;;;;;25.10;39.60;;;;;;5035310;28;43296;-88
2023/08/07 13:30:32;;;;;;;;;;;25.00;39.90;;;;;;5024418;28;42951;-88
2023/08/07 13:32:58;;;;;;;;;;;25.10;40.60;;;;;;5043011;28;44473;-87
2023/08/07 13:35:23;;;;;;;;;;;25.10;39.90;;;;;;5044153;28;43009;-87
2023/08/07 13:37:49;;;;;;;;;;;;;;;;;;5042344;28;42982;-87
2023/08/07 13:40:15;;;;;;;;;;;25.10;39.00;;;;;;5028639;28;42853;-87
2023/08/07 13:42:40;;;;;;;;;;;25.10;39.40;;;;;;5033515;28;43679;-87
2023/08/07 13:45:07;;;;;;;;;;;25.00;39.30;;;;;;5050196;28;42927;-87
2023/08/07 13:47:32;;;;;;;;;;;25.20;39.10;;;;;;5028730;28;42989;-88
2023/08/07 13:49:58;;;;;;;;;;;25.10;39.50;;;;;;5065611;28;42987;-88
2023/08/07 13:52:24;;;;;;;;;;;25.20;39.90;;;;;;5065251;28;43022;-87
2023/08/07 13:54:50;;;;;;;;;;;25.00;39.40;;;;;;5045362;28;43124;-87
2023/08/07 13:57:15;;;;;;;;;;;25.10;39.60;;;;;;5029757;28;43006;-87
2023/08/07 13:59:41;;;;;;;;;;;25.10;40.40;;;;;;5042937;28;42979;-87
2023/08/07 14:02:07;;;;;;;;;;;24.90;40.30;;;;;;5043700;28;43435;-87
2023/08/07 14:04:32;;;;;;;;;;;25.10;40.40;;;;;;5045670;28;42974;-87
2023/08/07 14:06:58;;;;;;;;;;;24.70;40.10;;;;;;5038058;28;44115;-87
2023/08/07 14:09:24;;;;;;;;;;;25.10;40.00;;;;;;5039404;28;42979;-87
2023/08/07 14:11:50;;;;;;;;;;;25.20;39.80;;;;;;5037351;28;43121;-87
2023/08/07 14:14:15;;;;;;;;;;;25.10;39.70;;;;;;5042690;28;43017;-87